Rankin, Pennsylvania
Current Conditions -  °F | °C
As of 1:53 PM on Friday 28 Nov 2014 (Local Time) from KAGC Reporting Station
Broken Clouds Broken Clouds  
Wind Chill: 20°   Ceiling: 3500
Heat Index: 27°   Visibility: 10mi
Dew Point: 11°   Wind: 6mph
Humidity: 51%   Direction: 320°NW
Pressure: 30.25"   Gusts: NA
Location:  40.4039°N, 79.8613°W
Report Text: KAGC 281853Z 32005KT 10SM BKN035 BKN100 M03/M12 A3025 RMK AO2 SLP263 T10281117
Loading
Personal Weather Stations






























Interactive Weather Map New forecast layout! Learn more

10-Day Weather Forecast

Advertisements
Track Severe Weather on mobile